Gloversville, New York
Current Conditions -  °F | °C
As of 9:55 AM on Saturday 01 Nov 2014 (Local Time) from KNY0 Reporting Station
Overcast Overcast  
Wind Chill:   Ceiling: 7000
Heat Index:   Visibility: 10mi
Dew Point: -2°   Wind: 10mph
Humidity: 59%   Direction: 50°NE
Pressure: 29.97"   Gusts: NA
Location:  43.06°N, 74.34°W
Report Text: KNY0 011355Z AUTO 05009KT 010V080 10SM OVC070 06/M02 A2997 RMK AO2 T00551019
Loading
Personal Weather Stations






























Interactive Weather Map
Tropical Storm Tracking
New forecast layout! Learn more

10-Day Weather Forecast

Advertisements
Track Severe Weather on mobile